sensor_id;sensor_type;location;lat;lon;timestamp;P1;durP1;ratioP1;P2;durP2;ratioP2
10120;SDS011;5100;45.176;5.714;2023-03-13T00:02:14;2.17;;;1.77;;
10120;SDS011;5100;45.176;5.714;2023-03-13T00:04:40;2.00;;;1.80;;
10120;SDS011;5100;45.176;5.714;2023-03-13T00:07:07;3.10;;;1.80;;
10120;SDS011;5100;45.176;5.714;2023-03-13T00:09:34;3.58;;;2.05;;
10120;SDS011;5100;45.176;5.714;2023-03-13T00:12:00;3.37;;;2.05;;
10120;SDS011;5100;45.176;5.714;2023-03-13T00:14:26;3.28;;;2.33;;
10120;SDS011;5100;45.176;5.714;2023-03-13T00:16:52;3.35;;;1.90;;
10120;SDS011;5100;45.176;5.714;2023-03-13T00:19:19;2.05;;;1.85;;
10120;SDS011;5100;45.176;5.714;2023-03-13T00:21:45;2.35;;;2.00;;
10120;SDS011;5100;45.176;5.714;2023-03-13T00:24:11;2.53;;;1.70;;
10120;SDS011;5100;45.176;5.714;2023-03-13T00:26:37;2.80;;;1.90;;
10120;SDS011;5100;45.176;5.714;2023-03-13T00:29:04;2.47;;;1.77;;
10120;SDS011;5100;45.176;5.714;2023-03-13T00:31:30;3.45;;;1.90;;
10120;SDS011;5100;45.176;5.714;2023-03-13T00:33:58;1.80;;;1.70;;
10120;SDS011;5100;45.176;5.714;2023-03-13T00:36:27;4.20;;;2.30;;
10120;SDS011;5100;45.176;5.714;2023-03-13T00:38:55;1.95;;;1.85;;
10120;SDS011;5100;45.176;5.714;2023-03-13T00:41:23;2.17;;;1.97;;
10120;SDS011;5100;45.176;5.714;2023-03-13T00:43:51;2.20;;;2.00;;
10120;SDS011;5100;45.176;5.714;2023-03-13T00:46:19;3.08;;;2.15;;
10120;SDS011;5100;45.176;5.714;2023-03-13T00:48:47;3.60;;;2.00;;
10120;SDS011;5100;45.176;5.714;2023-03-13T00:51:14;2.00;;;1.80;;
10120;SDS011;5100;45.176;5.714;2023-03-13T00:53:41;3.33;;;2.00;;
10120;SDS011;5100;45.176;5.714;2023-03-13T00:56:12;2.20;;;1.80;;
10120;SDS011;5100;45.176;5.714;2023-03-13T00:58:41;2.37;;;1.90;;
10120;SDS011;5100;45.176;5.714;2023-03-13T01:01:09;2.45;;;1.80;;
10120;SDS011;5100;45.176;5.714;2023-03-13T01:03:37;3.33;;;1.70;;
10120;SDS011;5100;45.176;5.714;2023-03-13T01:06:06;1.73;;;1.60;;
10120;SDS011;5100;45.176;5.714;2023-03-13T01:08:34;2.72;;;2.20;;
10120;SDS011;5100;45.176;5.714;2023-03-13T01:11:05;3.15;;;2.08;;
10120;SDS011;5100;45.176;5.714;2023-03-13T01:13:32;3.33;;;1.92;;
10120;SDS011;5100;45.176;5.714;2023-03-13T01:16:03;1.98;;;1.80;;
10120;SDS011;5100;45.176;5.714;2023-03-13T01:18:32;2.58;;;2.00;;
10120;SDS011;5100;45.176;5.714;2023-03-13T01:21:00;2.50;;;1.90;;
10120;SDS011;5100;45.176;5.714;2023-03-13T01:23:26;2.40;;;1.90;;
10120;SDS011;5100;45.176;5.714;2023-03-13T01:25:53;2.15;;;1.87;;
10120;SDS011;5100;45.176;5.714;2023-03-13T01:28:21;3.12;;;2.20;;
10120;SDS011;5100;45.176;5.714;2023-03-13T01:30:47;2.45;;;2.25;;
10120;SDS011;5100;45.176;5.714;2023-03-13T01:33:13;2.47;;;2.03;;
10120;SDS011;5100;45.176;5.714;2023-03-13T01:35:40;2.92;;;2.00;;
10120;SDS011;5100;45.176;5.714;2023-03-13T01:38:06;3.05;;;2.28;;
10120;SDS011;5100;45.176;5.714;2023-03-13T01:40:42;3.00;;;2.47;;
10120;SDS011;5100;45.176;5.714;2023-03-13T01:48:41;2.60;;;2.40;;
10120;SDS011;5100;45.176;5.714;2023-03-13T01:51:20;2.72;;;2.53;;
10120;SDS011;5100;45.176;5.714;2023-03-13T01:54:35;4.30;;;3.08;;
10120;SDS011;5100;45.176;5.714;2023-03-13T01:56:55;3.57;;;2.87;;
10120;SDS011;5100;45.176;5.714;2023-03-13T01:59:32;3.90;;;3.43;;
10120;SDS011;5100;45.176;5.714;2023-03-13T02:02:06;3.60;;;3.30;;
10120;SDS011;5100;45.176;5.714;2023-03-13T02:04:34;4.55;;;3.53;;
10120;SDS011;5100;45.176;5.714;2023-03-13T02:07:04;4.12;;;3.50;;
10120;SDS011;5100;45.176;5.714;2023-03-13T02:09:38;3.40;;;3.10;;
10120;SDS011;5100;45.176;5.714;2023-03-13T02:12:12;4.32;;;3.37;;
10120;SDS011;5100;45.176;5.714;2023-03-13T02:14:44;3.53;;;3.13;;
10120;SDS011;5100;45.176;5.714;2023-03-13T02:17:11;3.87;;;3.35;;
10120;SDS011;5100;45.176;5.714;2023-03-13T02:19:43;5.18;;;3.80;;
10120;SDS011;5100;45.176;5.714;2023-03-13T02:27:40;4.22;;;3.33;;
10120;SDS011;5100;45.176;5.714;2023-03-13T02:30:08;3.20;;;2.90;;
10120;SDS011;5100;45.176;5.714;2023-03-13T02:32:35;4.47;;;3.15;;
10120;SDS011;5100;45.176;5.714;2023-03-13T02:35:12;3.50;;;3.20;;
10120;SDS011;5100;45.176;5.714;2023-03-13T02:37:41;3.30;;;3.00;;
10120;SDS011;5100;45.176;5.714;2023-03-13T02:40:13;3.20;;;2.90;;
10120;SDS011;5100;45.176;5.714;2023-03-13T02:42:43;5.00;;;3.20;;
10120;SDS011;5100;45.176;5.714;2023-03-13T02:45:14;4.22;;;3.05;;
10120;SDS011;5100;45.176;5.714;2023-03-13T02:47:41;3.93;;;3.33;;
10120;SDS011;5100;45.176;5.714;2023-03-13T02:50:09;4.43;;;3.37;;
10120;SDS011;5100;45.176;5.714;2023-03-13T02:52:37;3.58;;;3.10;;
10120;SDS011;5100;45.176;5.714;2023-03-13T02:55:11;4.20;;;3.50;;
10120;SDS011;5100;45.176;5.714;2023-03-13T02:57:43;3.62;;;3.33;;
10120;SDS011;5100;45.176;5.714;2023-03-13T03:00:09;4.60;;;3.30;;
10120;SDS011;5100;45.176;5.714;2023-03-13T03:02:41;3.83;;;3.53;;
10120;SDS011;5100;45.176;5.714;2023-03-13T03:05:09;3.60;;;3.03;;
10120;SDS011;5100;45.176;5.714;2023-03-13T03:07:36;3.40;;;3.10;;
10120;SDS011;5100;45.176;5.714;2023-03-13T03:10:04;4.00;;;3.03;;
10120;SDS011;5100;45.176;5.714;2023-03-13T03:12:32;5.55;;;3.47;;
10120;SDS011;5100;45.176;5.714;2023-03-13T03:14:59;3.45;;;3.15;;
10120;SDS011;5100;45.176;5.714;2023-03-13T03:17:25;5.27;;;3.40;;
10120;SDS011;5100;45.176;5.714;2023-03-13T03:19:52;3.28;;;2.97;;
10120;SDS011;5100;45.176;5.714;2023-03-13T03:22:18;3.50;;;3.20;;
10120;SDS011;5100;45.176;5.714;2023-03-13T03:24:44;3.70;;;3.20;;
10120;SDS011;5100;45.176;5.714;2023-03-13T03:27:10;5.20;;;3.40;;
10120;SDS011;5100;45.176;5.714;2023-03-13T03:29:37;6.60;;;3.25;;
10120;SDS011;5100;45.176;5.714;2023-03-13T03:32:03;4.07;;;3.30;;
10120;SDS011;5100;45.176;5.714;2023-03-13T03:34:30;3.65;;;3.25;;
10120;SDS011;5100;45.176;5.714;2023-03-13T03:36:57;3.70;;;3.40;;
10120;SDS011;5100;45.176;5.714;2023-03-13T03:39:23;4.45;;;3.53;;
10120;SDS011;5100;45.176;5.714;2023-03-13T03:41:49;3.67;;;3.10;;
10120;SDS011;5100;45.176;5.714;2023-03-13T03:44:16;3.60;;;2.75;;
10120;SDS011;5100;45.176;5.714;2023-03-13T03:46:44;3.60;;;3.10;;
10120;SDS011;5100;45.176;5.714;2023-03-13T03:49:11;4.28;;;3.40;;
10120;SDS011;5100;45.176;5.714;2023-03-13T03:51:37;6.17;;;3.70;;
10120;SDS011;5100;45.176;5.714;2023-03-13T03:54:03;3.73;;;3.40;;
10120;SDS011;5100;45.176;5.714;2023-03-13T03:56:30;3.58;;;2.90;;
10120;SDS011;5100;45.176;5.714;2023-03-13T03:58:57;3.30;;;3.00;;
10120;SDS011;5100;45.176;5.714;2023-03-13T04:01:24;3.37;;;3.07;;
10120;SDS011;5100;45.176;5.714;2023-03-13T04:03:50;4.12;;;3.72;;
10120;SDS011;5100;45.176;5.714;2023-03-13T04:06:17;3.93;;;3.37;;
10120;SDS011;5100;45.176;5.714;2023-03-13T04:08:45;3.63;;;3.33;;
10120;SDS011;5100;45.176;5.714;2023-03-13T04:11:13;3.65;;;3.25;;
10120;SDS011;5100;45.176;5.714;2023-03-13T04:13:40;3.53;;;3.20;;
10120;SDS011;5100;45.176;5.714;2023-03-13T04:16:07;8.00;;;3.65;;
10120;SDS011;5100;45.176;5.714;2023-03-13T04:18:34;3.37;;;3.08;;
10120;SDS011;5100;45.176;5.714;2023-03-13T04:21:01;3.55;;;3.12;;
10120;SDS011;5100;45.176;5.714;2023-03-13T04:23:29;3.07;;;2.80;;
10120;SDS011;5100;45.176;5.714;2023-03-13T04:25:56;3.40;;;3.10;;
10120;SDS011;5100;45.176;5.714;2023-03-13T04:28:22;4.13;;;2.87;;
10120;SDS011;5100;45.176;5.714;2023-03-13T04:30:48;4.00;;;2.90;;
10120;SDS011;5100;45.176;5.714;2023-03-13T04:33:15;4.50;;;3.00;;
10120;SDS011;5100;45.176;5.714;2023-03-13T04:35:41;4.13;;;2.97;;
10120;SDS011;5100;45.176;5.714;2023-03-13T04:38:09;4.30;;;2.83;;
10120;SDS011;5100;45.176;5.714;2023-03-13T04:40:36;3.20;;;2.90;;
10120;SDS011;5100;45.176;5.714;2023-03-13T04:43:02;2.60;;;2.37;;
10120;SDS011;5100;45.176;5.714;2023-03-13T04:45:29;4.40;;;2.33;;
10120;SDS011;5100;45.176;5.714;2023-03-13T04:47:56;3.33;;;2.10;;
10120;SDS011;5100;45.176;5.714;2023-03-13T04:50:23;3.83;;;2.30;;
10120;SDS011;5100;45.176;5.714;2023-03-13T04:52:49;3.87;;;2.40;;
10120;SDS011;5100;45.176;5.714;2023-03-13T04:55:16;3.80;;;2.30;;
10120;SDS011;5100;45.176;5.714;2023-03-13T04:57:43;2.47;;;2.10;;
10120;SDS011;5100;45.176;5.714;2023-03-13T05:00:09;3.93;;;2.37;;
10120;SDS011;5100;45.176;5.714;2023-03-13T05:02:36;2.80;;;2.30;;
10120;SDS011;5100;45.176;5.714;2023-03-13T05:05:03;2.13;;;2.03;;
10120;SDS011;5100;45.176;5.714;2023-03-13T05:07:29;3.53;;;2.17;;
10120;SDS011;5100;45.176;5.714;2023-03-13T05:09:56;2.20;;;2.00;;
10120;SDS011;5100;45.176;5.714;2023-03-13T05:12:28;2.57;;;2.37;;
10120;SDS011;5100;45.176;5.714;2023-03-13T05:14:54;3.07;;;2.23;;
10120;SDS011;5100;45.176;5.714;2023-03-13T05:17:21;2.50;;;2.30;;
10120;SDS011;5100;45.176;5.714;2023-03-13T05:19:47;2.53;;;2.33;;
10120;SDS011;5100;45.176;5.714;2023-03-13T05:22:13;3.43;;;2.50;;
10120;SDS011;5100;45.176;5.714;2023-03-13T05:24:42;4.40;;;2.43;;
10120;SDS011;5100;45.176;5.714;2023-03-13T05:27:09;3.23;;;2.37;;
10120;SDS011;5100;45.176;5.714;2023-03-13T05:29:35;2.93;;;2.37;;
10120;SDS011;5100;45.176;5.714;2023-03-13T05:32:03;3.40;;;2.13;;
10120;SDS011;5100;45.176;5.714;2023-03-13T05:34:29;2.20;;;2.00;;
10120;SDS011;5100;45.176;5.714;2023-03-13T05:36:57;3.27;;;2.20;;
10120;SDS011;5100;45.176;5.714;2023-03-13T05:39:24;2.33;;;2.13;;
10120;SDS011;5100;45.176;5.714;2023-03-13T05:41:50;4.10;;;2.20;;
10120;SDS011;5100;45.176;5.714;2023-03-13T05:44:17;2.43;;;1.93;;
10120;SDS011;5100;45.176;5.714;2023-03-13T05:46:44;3.47;;;2.00;;
10120;SDS011;5100;45.176;5.714;2023-03-13T05:49:12;2.10;;;1.90;;
10120;SDS011;5100;45.176;5.714;2023-03-13T05:51:39;2.22;;;2.03;;
10120;SDS011;5100;45.176;5.714;2023-03-13T05:54:06;2.30;;;2.05;;
10120;SDS011;5100;45.176;5.714;2023-03-13T05:56:33;2.00;;;1.80;;
10120;SDS011;5100;45.176;5.714;2023-03-13T05:58:59;2.22;;;2.00;;
10120;SDS011;5100;45.176;5.714;2023-03-13T06:01:26;3.30;;;2.20;;
10120;SDS011;5100;45.176;5.714;2023-03-13T06:03:53;2.30;;;2.10;;
10120;SDS011;5100;45.176;5.714;2023-03-13T06:06:20;2.47;;;2.20;;
10120;SDS011;5100;45.176;5.714;2023-03-13T06:08:46;2.30;;;2.10;;
10120;SDS011;5100;45.176;5.714;2023-03-13T06:11:13;3.05;;;2.47;;
10120;SDS011;5100;45.176;5.714;2023-03-13T06:13:39;3.97;;;2.25;;
10120;SDS011;5100;45.176;5.714;2023-03-13T06:16:06;2.43;;;2.20;;
10120;SDS011;5100;45.176;5.714;2023-03-13T06:18:34;2.53;;;2.10;;
10120;SDS011;5100;45.176;5.714;2023-03-13T06:21:00;5.30;;;2.10;;
10120;SDS011;5100;45.176;5.714;2023-03-13T06:23:27;5.93;;;2.87;;
10120;SDS011;5100;45.176;5.714;2023-03-13T06:25:54;2.90;;;2.70;;
10120;SDS011;5100;45.176;5.714;2023-03-13T06:28:20;3.67;;;2.50;;
10120;SDS011;5100;45.176;5.714;2023-03-13T06:30:46;3.80;;;2.50;;
10120;SDS011;5100;45.176;5.714;2023-03-13T06:33:13;3.50;;;3.00;;
10120;SDS011;5100;45.176;5.714;2023-03-13T06:35:40;3.83;;;2.63;;
10120;SDS011;5100;45.176;5.714;2023-03-13T06:38:07;3.03;;;2.60;;
10120;SDS011;5100;45.176;5.714;2023-03-13T06:40:34;4.67;;;3.83;;
10120;SDS011;5100;45.176;5.714;2023-03-13T06:43:00;4.10;;;3.20;;
10120;SDS011;5100;45.176;5.714;2023-03-13T06:45:27;6.37;;;3.63;;
10120;SDS011;5100;45.176;5.714;2023-03-13T06:47:53;4.27;;;3.37;;
10120;SDS011;5100;45.176;5.714;2023-03-13T06:50:19;5.93;;;3.40;;
10120;SDS011;5100;45.176;5.714;2023-03-13T06:52:46;3.90;;;3.30;;
10120;SDS011;5100;45.176;5.714;2023-03-13T06:55:13;4.17;;;2.90;;
10120;SDS011;5100;45.176;5.714;2023-03-13T06:57:39;5.07;;;3.20;;
10120;SDS011;5100;45.176;5.714;2023-03-13T07:00:05;3.60;;;2.83;;
10120;SDS011;5100;45.176;5.714;2023-03-13T07:02:36;3.33;;;3.03;;
10120;SDS011;5100;45.176;5.714;2023-03-13T07:05:02;6.53;;;3.23;;
10120;SDS011;5100;45.176;5.714;2023-03-13T07:07:30;4.33;;;3.37;;
10120;SDS011;5100;45.176;5.714;2023-03-13T07:09:58;4.17;;;3.30;;
10120;SDS011;5100;45.176;5.714;2023-03-13T07:12:24;4.33;;;3.80;;
10120;SDS011;5100;45.176;5.714;2023-03-13T07:14:51;5.20;;;3.73;;
10120;SDS011;5100;45.176;5.714;2023-03-13T07:17:17;6.40;;;3.20;;
10120;SDS011;5100;45.176;5.714;2023-03-13T07:19:43;4.90;;;3.20;;
10120;SDS011;5100;45.176;5.714;2023-03-13T07:22:10;4.83;;;3.23;;
10120;SDS011;5100;45.176;5.714;2023-03-13T07:24:36;5.30;;;3.00;;
10120;SDS011;5100;45.176;5.714;2023-03-13T07:27:02;5.00;;;3.63;;
10120;SDS011;5100;45.176;5.714;2023-03-13T07:29:28;4.30;;;3.00;;
10120;SDS011;5100;45.176;5.714;2023-03-13T07:31:55;6.57;;;3.47;;
10120;SDS011;5100;45.176;5.714;2023-03-13T07:34:21;6.60;;;3.20;;
10120;SDS011;5100;45.176;5.714;2023-03-13T07:36:47;3.03;;;2.60;;
10120;SDS011;5100;45.176;5.714;2023-03-13T07:39:13;3.85;;;2.90;;
10120;SDS011;5100;45.176;5.714;2023-03-13T07:41:39;3.50;;;2.75;;
10120;SDS011;5100;45.176;5.714;2023-03-13T07:44:06;3.62;;;2.22;;
10120;SDS011;5100;45.176;5.714;2023-03-13T07:46:33;4.85;;;2.53;;
10120;SDS011;5100;45.176;5.714;2023-03-13T07:48:59;4.95;;;2.97;;
10120;SDS011;5100;45.176;5.714;2023-03-13T07:51:25;5.78;;;3.03;;
10120;SDS011;5100;45.176;5.714;2023-03-13T07:53:52;9.18;;;3.00;;
10120;SDS011;5100;45.176;5.714;2023-03-13T07:56:19;3.70;;;2.75;;
10120;SDS011;5100;45.176;5.714;2023-03-13T07:58:47;5.75;;;2.62;;
10120;SDS011;5100;45.176;5.714;2023-03-13T08:01:21;4.55;;;2.45;;
10120;SDS011;5100;45.176;5.714;2023-03-13T08:03:49;6.03;;;3.05;;
10120;SDS011;5100;45.176;5.714;2023-03-13T08:06:18;2.95;;;2.70;;
10120;SDS011;5100;45.176;5.714;2023-03-13T08:08:48;4.78;;;2.72;;
10120;SDS011;5100;45.176;5.714;2023-03-13T08:11:16;3.10;;;2.42;;
10120;SDS011;5100;45.176;5.714;2023-03-13T08:13:47;4.80;;;2.85;;
10120;SDS011;5100;45.176;5.714;2023-03-13T08:16:18;3.30;;;2.40;;
10120;SDS011;5100;45.176;5.714;2023-03-13T08:18:47;2.67;;;1.60;;
10120;SDS011;5100;45.176;5.714;2023-03-13T08:21:15;1.98;;;1.70;;
10120;SDS011;5100;45.176;5.714;2023-03-13T08:23:43;2.53;;;1.98;;
10120;SDS011;5100;45.176;5.714;2023-03-13T08:26:16;2.50;;;2.10;;
10120;SDS011;5100;45.176;5.714;2023-03-13T08:28:44;2.00;;;1.90;;
10120;SDS011;5100;45.176;5.714;2023-03-13T08:31:15;3.12;;;2.20;;
10120;SDS011;5100;45.176;5.714;2023-03-13T08:33:44;2.40;;;2.20;;
10120;SDS011;5100;45.176;5.714;2023-03-13T08:36:12;2.25;;;1.48;;
10120;SDS011;5100;45.176;5.714;2023-03-13T08:38:42;2.92;;;1.70;;
10120;SDS011;5100;45.176;5.714;2023-03-13T08:41:10;2.20;;;2.00;;
10120;SDS011;5100;45.176;5.714;2023-03-13T08:43:37;2.30;;;1.83;;
10120;SDS011;5100;45.176;5.714;2023-03-13T08:46:03;2.60;;;2.30;;
10120;SDS011;5100;45.176;5.714;2023-03-13T08:48:29;2.72;;;2.28;;
10120;SDS011;5100;45.176;5.714;2023-03-13T08:51:02;3.97;;;2.05;;
10120;SDS011;5100;45.176;5.714;2023-03-13T08:53:30;4.47;;;2.42;;
10120;SDS011;5100;45.176;5.714;2023-03-13T08:55:57;3.53;;;2.50;;
10120;SDS011;5100;45.176;5.714;2023-03-13T08:58:23;3.12;;;2.75;;
10120;SDS011;5100;45.176;5.714;2023-03-13T09:00:50;4.32;;;2.87;;
10120;SDS011;5100;45.176;5.714;2023-03-13T09:03:16;3.87;;;3.03;;
10120;SDS011;5100;45.176;5.714;2023-03-13T09:05:42;7.35;;;3.65;;
10120;SDS011;5100;45.176;5.714;2023-03-13T09:08:10;4.87;;;3.20;;
10120;SDS011;5100;45.176;5.714;2023-03-13T09:10:36;3.45;;;2.92;;
10120;SDS011;5100;45.176;5.714;2023-03-13T09:13:03;4.93;;;3.33;;
10120;SDS011;5100;45.176;5.714;2023-03-13T09:15:29;8.35;;;2.80;;
10120;SDS011;5100;45.176;5.714;2023-03-13T09:17:55;3.10;;;2.80;;
10120;SDS011;5100;45.176;5.714;2023-03-13T09:20:21;4.18;;;3.10;;
10120;SDS011;5100;45.176;5.714;2023-03-13T09:22:48;6.20;;;3.10;;
10120;SDS011;5100;45.176;5.714;2023-03-13T09:25:14;6.43;;;2.90;;
10120;SDS011;5100;45.176;5.714;2023-03-13T09:27:40;4.55;;;2.58;;
10120;SDS011;5100;45.176;5.714;2023-03-13T09:30:06;4.12;;;2.80;;
10120;SDS011;5100;45.176;5.714;2023-03-13T09:32:33;4.70;;;3.17;;
10120;SDS011;5100;45.176;5.714;2023-03-13T09:34:59;3.50;;;2.70;;
10120;SDS011;5100;45.176;5.714;2023-03-13T09:37:25;4.25;;;2.90;;
10120;SDS011;5100;45.176;5.714;2023-03-13T09:39:52;5.62;;;3.03;;
10120;SDS011;5100;45.176;5.714;2023-03-13T09:42:21;3.97;;;2.70;;
10120;SDS011;5100;45.176;5.714;2023-03-13T09:44:58;4.05;;;2.67;;
10120;SDS011;5100;45.176;5.714;2023-03-13T09:47:51;3.10;;;2.10;;
10120;SDS011;5100;45.176;5.714;2023-03-13T09:50:26;4.37;;;2.28;;
10120;SDS011;5100;45.176;5.714;2023-03-13T09:53:00;2.35;;;2.05;;
10120;SDS011;5100;45.176;5.714;2023-03-13T09:55:36;4.60;;;2.37;;
10120;SDS011;5100;45.176;5.714;2023-03-13T09:58:16;4.65;;;2.53;;
10120;SDS011;5100;45.176;5.714;2023-03-13T10:00:48;4.10;;;2.00;;
10120;SDS011;5100;45.176;5.714;2023-03-13T10:03:24;3.37;;;1.87;;
10120;SDS011;5100;45.176;5.714;2023-03-13T10:05:56;2.58;;;1.90;;
10120;SDS011;5100;45.176;5.714;2023-03-13T10:08:29;2.97;;;1.80;;
10120;SDS011;5100;45.176;5.714;2023-03-13T10:10:59;2.25;;;1.55;;
10120;SDS011;5100;45.176;5.714;2023-03-13T10:16:26;2.12;;;1.70;;
10120;SDS011;5100;45.176;5.714;2023-03-13T10:19:08;3.15;;;1.70;;
10120;SDS011;5100;45.176;5.714;2023-03-13T10:21:38;3.00;;;1.92;;
10120;SDS011;5100;45.176;5.714;2023-03-13T10:26:43;3.08;;;1.83;;
10120;SDS011;5100;45.176;5.714;2023-03-13T10:29:20;5.47;;;1.60;;
10120;SDS011;5100;45.176;5.714;2023-03-13T10:34:24;1.70;;;1.40;;
10120;SDS011;5100;45.176;5.714;2023-03-13T10:36:56;3.90;;;1.62;;
10120;SDS011;5100;45.176;5.714;2023-03-13T10:39:26;3.50;;;1.42;;
10120;SDS011;5100;45.176;5.714;2023-03-13T10:41:57;4.97;;;1.67;;
10120;SDS011;5100;45.176;5.714;2023-03-13T10:44:33;1.62;;;1.50;;
10120;SDS011;5100;45.176;5.714;2023-03-13T10:47:00;2.55;;;1.40;;
10120;SDS011;5100;45.176;5.714;2023-03-13T10:49:27;2.33;;;1.45;;
10120;SDS011;5100;45.176;5.714;2023-03-13T10:51:58;2.67;;;1.73;;
10120;SDS011;5100;45.176;5.714;2023-03-13T10:54:31;2.17;;;1.80;;
10120;SDS011;5100;45.176;5.714;2023-03-13T10:59:47;3.47;;;1.67;;
10120;SDS011;5100;45.176;5.714;2023-03-13T11:02:36;2.62;;;2.05;;
10120;SDS011;5100;45.176;5.714;2023-03-13T11:07:48;2.15;;;1.40;;
10120;SDS011;5100;45.176;5.714;2023-03-13T11:12:54;5.47;;;1.80;;
10120;SDS011;5100;45.176;5.714;2023-03-13T11:15:24;3.00;;;1.40;;
10120;SDS011;5100;45.176;5.714;2023-03-13T11:18:09;2.50;;;1.65;;
10120;SDS011;5100;45.176;5.714;2023-03-13T11:20:43;3.28;;;1.45;;
10120;SDS011;5100;45.176;5.714;2023-03-13T11:28:51;1.77;;;1.40;;
10120;SDS011;5100;45.176;5.714;2023-03-13T11:31:23;3.45;;;1.60;;
10120;SDS011;5100;45.176;5.714;2023-03-13T11:58:18;2.80;;;1.92;;
10120;SDS011;5100;45.176;5.714;2023-03-13T12:00:57;2.72;;;1.80;;
10120;SDS011;5100;45.176;5.714;2023-03-13T12:06:02;3.55;;;1.40;;
10120;SDS011;5100;45.176;5.714;2023-03-13T12:11:19;4.70;;;3.15;;
10120;SDS011;5100;45.176;5.714;2023-03-13T12:16:38;13.70;;;12.40;;
10120;SDS011;5100;45.176;5.714;2023-03-13T12:19:13;11.00;;;9.90;;
10120;SDS011;5100;45.176;5.714;2023-03-13T12:21:52;4.80;;;1.95;;
10120;SDS011;5100;45.176;5.714;2023-03-13T12:24:25;1.85;;;1.40;;
10120;SDS011;5100;45.176;5.714;2023-03-13T12:26:59;2.80;;;1.70;;
10120;SDS011;5100;45.176;5.714;2023-03-13T12:35:28;5.65;;;3.90;;
10120;SDS011;5100;45.176;5.714;2023-03-13T12:40:46;1.52;;;1.42;;
10120;SDS011;5100;45.176;5.714;2023-03-13T12:43:34;2.28;;;1.17;;
10120;SDS011;5100;45.176;5.714;2023-03-13T12:55:26;2.28;;;1.02;;
10120;SDS011;5100;45.176;5.714;2023-03-13T12:58:10;0.95;;;0.93;;
10120;SDS011;5100;45.176;5.714;2023-03-13T13:00:38;1.52;;;0.70;;
10120;SDS011;5100;45.176;5.714;2023-03-13T13:05:36;2.72;;;1.30;;
10120;SDS011;5100;45.176;5.714;2023-03-13T13:08:03;0.80;;;0.80;;
10120;SDS011;5100;45.176;5.714;2023-03-13T13:10:29;4.18;;;1.08;;
10120;SDS011;5100;45.176;5.714;2023-03-13T13:15:41;1.40;;;1.23;;
10120;SDS011;5100;45.176;5.714;2023-03-13T13:18:31;2.35;;;1.10;;
10120;SDS011;5100;45.176;5.714;2023-03-13T13:23:36;1.70;;;1.10;;
10120;SDS011;5100;45.176;5.714;2023-03-13T13:28:51;1.10;;;1.10;;
10120;SDS011;5100;45.176;5.714;2023-03-13T13:36:57;1.75;;;0.88;;
10120;SDS011;5100;45.176;5.714;2023-03-13T13:39:46;1.55;;;1.00;;
10120;SDS011;5100;45.176;5.714;2023-03-13T13:45:02;0.82;;;0.82;;
10120;SDS011;5100;45.176;5.714;2023-03-13T13:47:48;0.85;;;0.85;;
10120;SDS011;5100;45.176;5.714;2023-03-13T13:52:48;2.12;;;1.48;;
10120;SDS011;5100;45.176;5.714;2023-03-13T13:58:10;0.95;;;0.95;;
10120;SDS011;5100;45.176;5.714;2023-03-13T14:00:43;2.37;;;0.95;;
10120;SDS011;5100;45.176;5.714;2023-03-13T14:03:18;1.60;;;1.15;;
10120;SDS011;5100;45.176;5.714;2023-03-13T14:05:58;0.93;;;0.90;;
10120;SDS011;5100;45.176;5.714;2023-03-13T14:08:32;1.75;;;0.70;;
10120;SDS011;5100;45.176;5.714;2023-03-13T14:16:44;1.10;;;1.10;;
10120;SDS011;5100;45.176;5.714;2023-03-13T14:19:47;0.90;;;0.90;;
10120;SDS011;5100;45.176;5.714;2023-03-13T14:22:07;1.40;;;0.95;;
10120;SDS011;5100;45.176;5.714;2023-03-13T14:24:35;2.95;;;1.30;;
10120;SDS011;5100;45.176;5.714;2023-03-13T14:27:13;1.17;;;1.02;;
10120;SDS011;5100;45.176;5.714;2023-03-13T14:29:59;2.67;;;1.15;;
10120;SDS011;5100;45.176;5.714;2023-03-13T14:32:30;3.37;;;0.90;;
10120;SDS011;5100;45.176;5.714;2023-03-13T14:34:56;1.20;;;1.02;;
10120;SDS011;5100;45.176;5.714;2023-03-13T14:42:50;4.43;;;1.37;;
10120;SDS011;5100;45.176;5.714;2023-03-13T14:47:50;1.45;;;0.90;;
10120;SDS011;5100;45.176;5.714;2023-03-13T14:50:17;3.17;;;0.90;;
10120;SDS011;5100;45.176;5.714;2023-03-13T14:52:49;3.22;;;1.00;;
10120;SDS011;5100;45.176;5.714;2023-03-13T14:58:48;0.93;;;0.90;;
10120;SDS011;5100;45.176;5.714;2023-03-13T15:00:43;3.83;;;0.98;;
10120;SDS011;5100;45.176;5.714;2023-03-13T15:03:11;4.62;;;1.42;;
10120;SDS011;5100;45.176;5.714;2023-03-13T15:05:38;2.70;;;1.50;;
10120;SDS011;5100;45.176;5.714;2023-03-13T15:08:10;1.73;;;1.25;;
10120;SDS011;5100;45.176;5.714;2023-03-13T15:10:39;0.98;;;0.98;;
10120;SDS011;5100;45.176;5.714;2023-03-13T15:13:13;1.73;;;1.05;;
10120;SDS011;5100;45.176;5.714;2023-03-13T15:15:51;4.10;;;1.08;;
10120;SDS011;5100;45.176;5.714;2023-03-13T15:18:25;1.83;;;1.10;;
10120;SDS011;5100;45.176;5.714;2023-03-13T15:20:57;1.50;;;1.20;;
10120;SDS011;5100;45.176;5.714;2023-03-13T15:23:48;2.60;;;1.20;;
10120;SDS011;5100;45.176;5.714;2023-03-13T15:26:14;0.98;;;0.98;;
10120;SDS011;5100;45.176;5.714;2023-03-13T15:28:41;1.37;;;1.00;;
10120;SDS011;5100;45.176;5.714;2023-03-13T15:31:08;1.67;;;0.90;;
10120;SDS011;5100;45.176;5.714;2023-03-13T15:33:37;1.05;;;1.05;;
10120;SDS011;5100;45.176;5.714;2023-03-13T15:36:03;1.50;;;1.10;;
10120;SDS011;5100;45.176;5.714;2023-03-13T15:38:29;1.55;;;1.00;;
10120;SDS011;5100;45.176;5.714;2023-03-13T15:40:56;1.65;;;0.93;;
10120;SDS011;5100;45.176;5.714;2023-03-13T15:43:22;1.48;;;1.33;;
10120;SDS011;5100;45.176;5.714;2023-03-13T15:45:49;1.75;;;0.98;;
10120;SDS011;5100;45.176;5.714;2023-03-13T15:48:17;0.80;;;0.80;;
10120;SDS011;5100;45.176;5.714;2023-03-13T15:50:49;1.73;;;1.15;;
10120;SDS011;5100;45.176;5.714;2023-03-13T15:53:21;2.58;;;1.10;;
10120;SDS011;5100;45.176;5.714;2023-03-13T15:55:49;1.95;;;1.10;;
10120;SDS011;5100;45.176;5.714;2023-03-13T15:58:17;1.77;;;1.10;;
10120;SDS011;5100;45.176;5.714;2023-03-13T16:00:43;1.75;;;1.40;;
10120;SDS011;5100;45.176;5.714;2023-03-13T16:03:18;1.60;;;1.00;;
10120;SDS011;5100;45.176;5.714;2023-03-13T16:05:49;1.87;;;1.40;;
10120;SDS011;5100;45.176;5.714;2023-03-13T16:08:18;1.10;;;1.00;;
10120;SDS011;5100;45.176;5.714;2023-03-13T16:10:49;1.23;;;1.10;;
10120;SDS011;5100;45.176;5.714;2023-03-13T16:13:15;1.98;;;1.30;;
10120;SDS011;5100;45.176;5.714;2023-03-13T16:15:42;1.62;;;1.20;;
10120;SDS011;5100;45.176;5.714;2023-03-13T16:18:12;1.50;;;1.40;;
10120;SDS011;5100;45.176;5.714;2023-03-13T16:20:46;1.02;;;1.02;;
10120;SDS011;5100;45.176;5.714;2023-03-13T16:23:13;1.60;;;1.50;;
10120;SDS011;5100;45.176;5.714;2023-03-13T16:25:41;1.27;;;1.10;;
10120;SDS011;5100;45.176;5.714;2023-03-13T16:28:11;1.12;;;1.02;;
10120;SDS011;5100;45.176;5.714;2023-03-13T16:30:38;1.67;;;1.40;;
10120;SDS011;5100;45.176;5.714;2023-03-13T16:33:06;1.50;;;1.12;;
10120;SDS011;5100;45.176;5.714;2023-03-13T16:35:33;1.15;;;1.00;;
10120;SDS011;5100;45.176;5.714;2023-03-13T16:37:59;1.85;;;1.30;;
10120;SDS011;5100;45.176;5.714;2023-03-13T16:40:26;0.90;;;0.90;;
10120;SDS011;5100;45.176;5.714;2023-03-13T16:42:55;2.17;;;1.42;;
10120;SDS011;5100;45.176;5.714;2023-03-13T16:45:21;0.93;;;0.93;;
10120;SDS011;5100;45.176;5.714;2023-03-13T16:47:48;2.75;;;1.40;;
10120;SDS011;5100;45.176;5.714;2023-03-13T16:50:28;2.97;;;1.20;;
10120;SDS011;5100;45.176;5.714;2023-03-13T16:52:57;1.30;;;1.20;;
10120;SDS011;5100;45.176;5.714;2023-03-13T16:55:24;1.25;;;1.08;;
10120;SDS011;5100;45.176;5.714;2023-03-13T16:57:53;2.55;;;1.20;;
10120;SDS011;5100;45.176;5.714;2023-03-13T17:00:21;1.20;;;1.10;;
10120;SDS011;5100;45.176;5.714;2023-03-13T17:02:48;1.90;;;1.12;;
10120;SDS011;5100;45.176;5.714;2023-03-13T17:05:15;1.95;;;1.10;;
10120;SDS011;5100;45.176;5.714;2023-03-13T17:07:42;1.10;;;1.10;;
10120;SDS011;5100;45.176;5.714;2023-03-13T17:12:49;1.33;;;1.20;;
10120;SDS011;5100;45.176;5.714;2023-03-13T17:15:16;1.85;;;1.20;;
10120;SDS011;5100;45.176;5.714;2023-03-13T17:17:43;1.33;;;1.20;;
10120;SDS011;5100;45.176;5.714;2023-03-13T17:20:22;1.23;;;0.95;;